METAR Reports From Nearby Airports

 

KLUD - Decatur, Texas, USA
Distance from Wildwood: ØSØ 5mi, 8km
Opdateret: Jul 13, 2020 12:35am
Klart
Klart
 Vind retning Ø
Vind: Ø 6 mph , 9 km/h
Temperatur: 81°F , 27°C
Heat Index: 86°F , 30°C
Dugpunkt: 73°F , 23°C
Fugtighed: 79%
Barometer: 29.90 inHg , 1012.5 hPa
Clouds: Klart
Visibility: 10 miles , 16 km
2020/07/13 05:35 KLUD 130535Z AUTO 10005KT 10SM CLR 27/23 A2990 RMK AO2 T02740227
KXBP - Bridgeport, Texas, USA
Distance from Wildwood: VSV 11mi, 18km
Opdateret: Jul 13, 2020 12:35am
Klart
Klart
 Vind retning ØSØ
Vind: ØSØ 5 mph , 7 km/h
Temperatur: 81°F , 27°C
Heat Index: 85°F , 29°C
Dugpunkt: 72°F , 22°C
Fugtighed: 74%
Barometer: 29.90 inHg , 1012.5 hPa
Clouds: Klart
Visibility: 10 miles , 16 km
2020/07/13 05:35 KXBP 130535Z AUTO 11004KT 10SM CLR 27/22 A2990 RMK AO2 T02740217
 
K0F2 - Bowie, Texas, USA
Distance from Wildwood: NNV 24mi, 39km
Opdateret: Jul 13, 2020 12:35am
Klart
Klart
 Vind retning ØSØ
Vind: ØSØ 3 mph , 6 km/h
Temperatur: 84°F , 29°C
Heat Index: 90°F , 32°C
Dugpunkt: 73°F , 23°C
Fugtighed: 70%
Barometer: 29.90 inHg , 1012.5 hPa
Clouds: Klart
Visibility: 10 miles , 16 km
2020/07/13 05:35 K0F2 130535Z AUTO 12003KT 10SM CLR 29/23 A2990 RMK AO2 T02920234
KDTO - Denton, Texas, USA
Distance from Wildwood: Ø 27mi, 44km
Opdateret: Jul 12, 2020 11:53pm
Klart
Klart
 Vind retning SØ
Vind: SØ 7 mph , 11 km/h
Temperatur: 88°F , 31°C
Heat Index: 95°F , 35°C
Dugpunkt: 72°F , 22°C
Fugtighed: 59%
Barometer: 29.88 inHg , 1011.9 hPa
Clouds: Klart
Visibility: 10 miles , 16 km
2020/07/13 04:53 KDTO 130453Z AUTO 13006KT 10SM CLR 31/22 A2988 RMK AO2 SLP107 T03110222
 
KAFW - Ft Worth/Allianc, Texas, USA
Distance from Wildwood: SØ 29mi, 46km
Opdateret: Jul 12, 2020 11:53pm
Few Clouds
Few Clouds
 Vind retning SØ
Vind: SØ 8 mph , 13 km/h
Temperatur: 88°F , 31°C
Heat Index: 96°F , 36°C
Dugpunkt: 73°F , 23°C
Fugtighed: 62%
Barometer: 29.88 inHg , 1011.9 hPa
Clouds: Few Clouds
Visibility: 10 miles , 16 km
Cloud details: Few Clouds 25000 ft
2020/07/13 04:53 KAFW 130453Z 13007KT 10SM FEW250 31/23 A2988 RMK AO2 SLP098 T03060233
KFTW - Fort Worth, Texas, USA
Distance from Wildwood: SSØ 34mi, 55km
Opdateret: Jul 12, 2020 11:53pm
Klart
Klart
 Vind retning ØSØ
Vind: ØSØ 12 mph , 19 km/h
Temperatur: 88°F , 31°C
Heat Index: 98°F , 37°C
Dugpunkt: 75°F , 24°C
Fugtighed: 66%
Barometer: 29.87 inHg , 1011.5 hPa
Clouds: Klart
Visibility: 10 miles , 16 km
2020/07/13 04:53 KFTW 130453Z 12010KT 10SM CLR 31/24 A2987 RMK AO2 SLP104 T03060244
 
KNFW - Fort Worth Nas, Texas, USA
Distance from Wildwood: SSØ 36mi, 58km
Opdateret: Jul 12, 2020 11:52pm
Klart
Klart
 Vind retning SØ
Vind: SØ 12 mph , 19 km/h
Temperatur: 90°F , 32°C
Heat Index: 101°F , 38°C
Dugpunkt: 75°F , 24°C
Fugtighed: 63%
Barometer: 29.88 inHg , 1011.9 hPa
Clouds: Klart
Visibility: 10 miles , 16 km
2020/07/13 04:52 KNFW 130452Z AUTO 13010KT 10SM CLR 32/24 A2988 RMK AO2 SLP102 T03220239 VISNO N $
KGLE - Gainesville, Texas, USA
Distance from Wildwood: NØ 38mi, 61km
Opdateret: Jul 13, 2020 12:35am
Klart
Klart
 Vind retning ØSØ
Vind: ØSØ 7 mph , 11 km/h
Temperatur: 82°F , 28°C
Heat Index: 86°F , 30°C
Dugpunkt: 72°F , 22°C
Fugtighed: 70%
Barometer: 29.92 inHg , 1013.2 hPa
Clouds: Klart
Visibility: 10 miles , 16 km
2020/07/13 05:35 KGLE 130535Z AUTO 12006KT 10SM CLR 28/22 A2992 RMK AO2 T02810217 PWINO
 
KMWL - Mineral Wells, Texas, USA
Distance from Wildwood: SV 41mi, 65km
Opdateret: Jul 12, 2020 11:53pm
Klart
Klart
 Vind retning SØ
Vind: SØ 8 mph , 13 km/h
Temperatur: 84°F , 29°C
Heat Index: 90°F , 32°C
Dugpunkt: 73°F , 23°C
Fugtighed: 70%
Barometer: 29.87 inHg , 1011.5 hPa
Clouds: Klart
Visibility: 10 miles , 16 km
2020/07/13 04:53 KMWL 130453Z AUTO 13007KT 10SM CLR 29/23 A2987 RMK AO2 SLP096 T02940228 $
KDFW - Dallas/Ft Worth, Texas, USA
Distance from Wildwood: ØSØ 45mi, 73km
Opdateret: Jul 12, 2020 11:53pm
Few Clouds
Few Clouds
 Vind retning SØ
Vind: SØ 10 mph , 17 km/h
Temperatur: 88°F , 31°C
Heat Index: 98°F , 37°C
Dugpunkt: 75°F , 24°C
Fugtighed: 66%
Barometer: 29.87 inHg , 1011.5 hPa
Clouds: Few Clouds
Visibility: 10 miles , 16 km
Cloud details: Few Clouds 30000 ft
2020/07/13 04:53 KDFW 130453Z 14009KT 10SM FEW300 31/24 A2987 RMK AO2 SLP104 T03110244